sensor_id;sensor_type;location;lat;lon;timestamp;pressure;altitude;pressure_sealevel;temperature;humidity
79075;BME280;68476;42.710;23.388;2024-01-30T00:00:41;97610.31;;;-3.08;91.78
79075;BME280;68476;42.710;23.388;2024-01-30T00:03:06;97605.34;;;-3.14;91.91
79075;BME280;68476;42.710;23.388;2024-01-30T00:05:32;97604.88;;;-3.06;90.44
79075;BME280;68476;42.710;23.388;2024-01-30T00:07:57;97606.31;;;-3.01;90.63
79075;BME280;68476;42.710;23.388;2024-01-30T00:10:23;97605.94;;;-3.09;90.52
79075;BME280;68476;42.710;23.388;2024-01-30T00:12:48;97604.69;;;-3.03;88.18
79075;BME280;68476;42.710;23.388;2024-01-30T00:15:14;97610.69;;;-3.14;89.77
79075;BME280;68476;42.710;23.388;2024-01-30T00:17:40;97613.84;;;-3.07;89.74
79075;BME280;68476;42.710;23.388;2024-01-30T00:20:06;97614.22;;;-2.99;87.98
79075;BME280;68476;42.710;23.388;2024-01-30T00:22:32;97617.16;;;-3.04;87.77
79075;BME280;68476;42.710;23.388;2024-01-30T00:24:58;97615.28;;;-3.02;86.17
79075;BME280;68476;42.710;23.388;2024-01-30T00:27:24;97613.19;;;-2.97;85.64
79075;BME280;68476;42.710;23.388;2024-01-30T00:29:49;97616.41;;;-2.91;85.02
79075;BME280;68476;42.710;23.388;2024-01-30T00:32:14;97612.81;;;-2.76;83.31
79075;BME280;68476;42.710;23.388;2024-01-30T00:34:41;97616.31;;;-2.75;81.37
79075;BME280;68476;42.710;23.388;2024-01-30T00:37:07;97618.44;;;-2.81;82.62
79075;BME280;68476;42.710;23.388;2024-01-30T00:39:32;97617.06;;;-2.88;83.08
79075;BME280;68476;42.710;23.388;2024-01-30T00:41:58;97611.47;;;-2.98;83.80
79075;BME280;68476;42.710;23.388;2024-01-30T00:44:24;97613.63;;;-3.19;84.96
79075;BME280;68476;42.710;23.388;2024-01-30T00:46:49;97611.72;;;-3.17;85.48
79075;BME280;68476;42.710;23.388;2024-01-30T00:49:15;97610.47;;;-3.26;86.40
79075;BME280;68476;42.710;23.388;2024-01-30T00:51:40;97613.25;;;-3.27;85.78
79075;BME280;68476;42.710;23.388;2024-01-30T00:54:06;97608.19;;;-3.32;85.65
79075;BME280;68476;42.710;23.388;2024-01-30T00:56:31;97613.06;;;-3.24;85.27
79075;BME280;68476;42.710;23.388;2024-01-30T00:58:57;97609.91;;;-3.16;83.88
79075;BME280;68476;42.710;23.388;2024-01-30T01:01:22;97603.06;;;-3.20;83.47
79075;BME280;68476;42.710;23.388;2024-01-30T01:03:48;97606.69;;;-3.21;84.48
79075;BME280;68476;42.710;23.388;2024-01-30T01:06:14;97610.28;;;-3.22;83.97
79075;BME280;68476;42.710;23.388;2024-01-30T01:08:39;97617.41;;;-3.23;84.96
79075;BME280;68476;42.710;23.388;2024-01-30T01:11:05;97609.91;;;-3.31;85.32
79075;BME280;68476;42.710;23.388;2024-01-30T01:13:30;97611.81;;;-3.33;85.07
79075;BME280;68476;42.710;23.388;2024-01-30T01:15:56;97618.22;;;-3.06;82.28
79075;BME280;68476;42.710;23.388;2024-01-30T01:18:21;97614.00;;;-3.25;84.15
79075;BME280;68476;42.710;23.388;2024-01-30T01:20:47;97621.88;;;-3.38;86.63
79075;BME280;68476;42.710;23.388;2024-01-30T01:23:12;97614.06;;;-3.41;87.02
79075;BME280;68476;42.710;23.388;2024-01-30T01:25:38;97608.91;;;-3.44;87.19
79075;BME280;68476;42.710;23.388;2024-01-30T01:28:04;97616.31;;;-3.49;87.91
79075;BME280;68476;42.710;23.388;2024-01-30T01:30:29;97610.16;;;-3.50;87.00
79075;BME280;68476;42.710;23.388;2024-01-30T01:32:55;97621.34;;;-3.59;87.92
79075;BME280;68476;42.710;23.388;2024-01-30T01:35:25;97612.59;;;-3.61;87.94
79075;BME280;68476;42.710;23.388;2024-01-30T01:37:51;97612.75;;;-3.64;88.88
79075;BME280;68476;42.710;23.388;2024-01-30T01:40:23;97623.09;;;-3.74;89.38
79075;BME280;68476;42.710;23.388;2024-01-30T01:42:50;97617.59;;;-3.71;89.84
79075;BME280;68476;42.710;23.388;2024-01-30T01:45:19;97616.41;;;-3.81;90.63
79075;BME280;68476;42.710;23.388;2024-01-30T01:47:47;97616.19;;;-3.93;90.94
79075;BME280;68476;42.710;23.388;2024-01-30T01:50:15;97615.81;;;-3.87;91.31
79075;BME280;68476;42.710;23.388;2024-01-30T01:52:45;97612.13;;;-3.84;89.92
79075;BME280;68476;42.710;23.388;2024-01-30T01:55:13;97617.50;;;-4.00;91.03
79075;BME280;68476;42.710;23.388;2024-01-30T01:57:40;97623.63;;;-3.83;90.51
79075;BME280;68476;42.710;23.388;2024-01-30T02:00:08;97619.22;;;-3.68;89.54
79075;BME280;68476;42.710;23.388;2024-01-30T02:02:36;97626.19;;;-3.66;89.72
79075;BME280;68476;42.710;23.388;2024-01-30T02:05:02;97623.41;;;-3.64;90.60
79075;BME280;68476;42.710;23.388;2024-01-30T02:07:28;97620.13;;;-3.53;89.04
79075;BME280;68476;42.710;23.388;2024-01-30T02:09:54;97623.66;;;-3.53;89.23
79075;BME280;68476;42.710;23.388;2024-01-30T02:12:20;97626.09;;;-3.34;87.62
79075;BME280;68476;42.710;23.388;2024-01-30T02:14:47;97624.75;;;-3.27;86.75
79075;BME280;68476;42.710;23.388;2024-01-30T02:17:13;97626.97;;;-3.49;89.30
79075;BME280;68476;42.710;23.388;2024-01-30T02:19:39;97626.63;;;-3.43;89.31
79075;BME280;68476;42.710;23.388;2024-01-30T02:22:05;97628.97;;;-3.22;89.20
79075;BME280;68476;42.710;23.388;2024-01-30T02:24:31;97622.50;;;-3.04;86.64
79075;BME280;68476;42.710;23.388;2024-01-30T02:26:56;97613.75;;;-3.06;86.75
79075;BME280;68476;42.710;23.388;2024-01-30T02:29:22;97610.69;;;-3.14;87.05
79075;BME280;68476;42.710;23.388;2024-01-30T02:31:47;97622.09;;;-3.27;87.66
79075;BME280;68476;42.710;23.388;2024-01-30T02:34:14;97616.91;;;-3.44;89.32
79075;BME280;68476;42.710;23.388;2024-01-30T02:36:42;97622.59;;;-3.50;90.45
79075;BME280;68476;42.710;23.388;2024-01-30T02:39:10;97620.22;;;-3.55;91.99
79075;BME280;68476;42.710;23.388;2024-01-30T02:41:36;97620.84;;;-3.66;94.94
79075;BME280;68476;42.710;23.388;2024-01-30T02:44:02;97626.94;;;-3.64;93.51
79075;BME280;68476;42.710;23.388;2024-01-30T02:46:28;97626.81;;;-3.46;91.71
79075;BME280;68476;42.710;23.388;2024-01-30T02:48:53;97623.06;;;-3.13;87.39
79075;BME280;68476;42.710;23.388;2024-01-30T02:51:19;97616.88;;;-3.14;85.47
79075;BME280;68476;42.710;23.388;2024-01-30T02:53:44;97611.72;;;-3.17;85.83
79075;BME280;68476;42.710;23.388;2024-01-30T02:56:10;97613.81;;;-3.22;85.57
79075;BME280;68476;42.710;23.388;2024-01-30T02:58:36;97615.44;;;-3.05;84.71
79075;BME280;68476;42.710;23.388;2024-01-30T03:01:02;97618.66;;;-3.29;88.45
79075;BME280;68476;42.710;23.388;2024-01-30T03:03:28;97617.22;;;-3.34;89.87
79075;BME280;68476;42.710;23.388;2024-01-30T03:05:53;97607.53;;;-3.35;89.36
79075;BME280;68476;42.710;23.388;2024-01-30T03:08:19;97605.31;;;-3.29;88.91
79075;BME280;68476;42.710;23.388;2024-01-30T03:10:45;97614.13;;;-3.12;86.45
79075;BME280;68476;42.710;23.388;2024-01-30T03:13:10;97607.16;;;-3.15;84.77
79075;BME280;68476;42.710;23.388;2024-01-30T03:15:36;97601.38;;;-3.07;83.30
79075;BME280;68476;42.710;23.388;2024-01-30T03:18:02;97605.66;;;-3.04;83.43
79075;BME280;68476;42.710;23.388;2024-01-30T03:20:29;97608.47;;;-3.22;84.61
79075;BME280;68476;42.710;23.388;2024-01-30T03:22:55;97610.25;;;-3.37;85.94
79075;BME280;68476;42.710;23.388;2024-01-30T03:25:20;97611.63;;;-3.30;85.27
79075;BME280;68476;42.710;23.388;2024-01-30T03:27:46;97607.81;;;-3.26;84.80
79075;BME280;68476;42.710;23.388;2024-01-30T03:30:11;97603.41;;;-3.27;84.54
79075;BME280;68476;42.710;23.388;2024-01-30T03:32:37;97597.13;;;-3.26;83.32
79075;BME280;68476;42.710;23.388;2024-01-30T03:35:03;97600.19;;;-3.32;83.08
79075;BME280;68476;42.710;23.388;2024-01-30T03:37:28;97603.53;;;-3.28;82.12
79075;BME280;68476;42.710;23.388;2024-01-30T03:39:54;97597.91;;;-3.23;81.05
79075;BME280;68476;42.710;23.388;2024-01-30T03:42:19;97597.53;;;-3.32;82.17
79075;BME280;68476;42.710;23.388;2024-01-30T03:44:45;97583.78;;;-3.40;82.33
79075;BME280;68476;42.710;23.388;2024-01-30T03:47:10;97597.09;;;-3.40;83.40
79075;BME280;68476;42.710;23.388;2024-01-30T03:49:36;97593.09;;;-3.47;83.92
79075;BME280;68476;42.710;23.388;2024-01-30T03:52:01;97595.94;;;-3.81;87.23
79075;BME280;68476;42.710;23.388;2024-01-30T03:54:27;97602.44;;;-4.17;92.56
79075;BME280;68476;42.710;23.388;2024-01-30T03:56:52;97588.66;;;-4.24;92.24
79075;BME280;68476;42.710;23.388;2024-01-30T03:59:18;97591.72;;;-4.31;91.62
79075;BME280;68476;42.710;23.388;2024-01-30T04:01:49;97599.09;;;-4.37;92.78
79075;BME280;68476;42.710;23.388;2024-01-30T04:04:15;97592.31;;;-4.42;93.38
79075;BME280;68476;42.710;23.388;2024-01-30T04:06:41;97588.31;;;-4.50;92.11
79075;BME280;68476;42.710;23.388;2024-01-30T04:09:06;97593.09;;;-4.40;91.58
79075;BME280;68476;42.710;23.388;2024-01-30T04:11:32;97588.81;;;-4.43;92.22
79075;BME280;68476;42.710;23.388;2024-01-30T04:13:58;97592.31;;;-4.58;92.57
79075;BME280;68476;42.710;23.388;2024-01-30T04:16:23;97592.75;;;-4.66;92.96
79075;BME280;68476;42.710;23.388;2024-01-30T04:18:49;97602.69;;;-4.70;95.20
79075;BME280;68476;42.710;23.388;2024-01-30T04:21:15;97600.47;;;-4.45;94.08
79075;BME280;68476;42.710;23.388;2024-01-30T04:23:41;97597.69;;;-3.96;86.80
79075;BME280;68476;42.710;23.388;2024-01-30T04:26:06;97596.16;;;-4.16;88.25
79075;BME280;68476;42.710;23.388;2024-01-30T04:28:32;97606.41;;;-4.24;87.65
79075;BME280;68476;42.710;23.388;2024-01-30T04:30:57;97603.91;;;-4.27;87.40
79075;BME280;68476;42.710;23.388;2024-01-30T04:33:23;97612.16;;;-4.48;87.95
79075;BME280;68476;42.710;23.388;2024-01-30T04:35:48;97607.19;;;-4.54;89.64
79075;BME280;68476;42.710;23.388;2024-01-30T04:38:13;97601.94;;;-4.56;90.29
79075;BME280;68476;42.710;23.388;2024-01-30T04:40:40;97611.72;;;-4.56;89.96
79075;BME280;68476;42.710;23.388;2024-01-30T04:43:05;97609.66;;;-4.51;88.90
79075;BME280;68476;42.710;23.388;2024-01-30T04:45:31;97613.09;;;-4.49;88.03
79075;BME280;68476;42.710;23.388;2024-01-30T04:47:56;97610.84;;;-4.57;87.85
79075;BME280;68476;42.710;23.388;2024-01-30T04:50:23;97623.34;;;-4.75;92.62
79075;BME280;68476;42.710;23.388;2024-01-30T04:52:48;97622.25;;;-4.71;93.02
79075;BME280;68476;42.710;23.388;2024-01-30T04:55:14;97624.34;;;-4.60;91.05
79075;BME280;68476;42.710;23.388;2024-01-30T04:57:39;97630.69;;;-4.62;92.31
79075;BME280;68476;42.710;23.388;2024-01-30T05:00:06;97630.09;;;-4.52;90.63
79075;BME280;68476;42.710;23.388;2024-01-30T05:02:31;97613.50;;;-4.57;90.07
79075;BME280;68476;42.710;23.388;2024-01-30T05:04:57;97631.84;;;-4.35;88.84
79075;BME280;68476;42.710;23.388;2024-01-30T05:07:24;97624.53;;;-4.31;88.87
79075;BME280;68476;42.710;23.388;2024-01-30T05:09:50;97626.84;;;-4.25;89.20
79075;BME280;68476;42.710;23.388;2024-01-30T05:12:15;97625.31;;;-4.45;89.47
79075;BME280;68476;42.710;23.388;2024-01-30T05:14:41;97622.47;;;-4.26;88.90
79075;BME280;68476;42.710;23.388;2024-01-30T05:17:06;97628.59;;;-4.24;89.68
79075;BME280;68476;42.710;23.388;2024-01-30T05:19:33;97624.53;;;-4.31;89.17
79075;BME280;68476;42.710;23.388;2024-01-30T05:21:59;97627.63;;;-4.07;87.46
79075;BME280;68476;42.710;23.388;2024-01-30T05:24:24;97630.53;;;-4.11;89.53
79075;BME280;68476;42.710;23.388;2024-01-30T05:26:50;97634.75;;;-4.23;90.95
79075;BME280;68476;42.710;23.388;2024-01-30T05:29:16;97632.44;;;-4.29;91.05
79075;BME280;68476;42.710;23.388;2024-01-30T05:31:42;97629.69;;;-4.28;90.61
79075;BME280;68476;42.710;23.388;2024-01-30T05:34:07;97632.75;;;-4.52;93.24
79075;BME280;68476;42.710;23.388;2024-01-30T05:36:34;97633.44;;;-4.64;97.87
79075;BME280;68476;42.710;23.388;2024-01-30T05:38:59;97635.66;;;-4.72;97.56
79075;BME280;68476;42.710;23.388;2024-01-30T05:41:25;97639.31;;;-4.75;97.96
79075;BME280;68476;42.710;23.388;2024-01-30T05:43:50;97643.13;;;-4.63;94.89
79075;BME280;68476;42.710;23.388;2024-01-30T05:46:16;97648.53;;;-4.98;98.74
79075;BME280;68476;42.710;23.388;2024-01-30T05:48:41;97645.84;;;-5.14;100.00
79075;BME280;68476;42.710;23.388;2024-01-30T05:51:07;97649.50;;;-5.17;100.00
79075;BME280;68476;42.710;23.388;2024-01-30T05:53:34;97644.50;;;-5.23;100.00
79075;BME280;68476;42.710;23.388;2024-01-30T05:56:01;97646.22;;;-5.22;100.00
79075;BME280;68476;42.710;23.388;2024-01-30T05:58:27;97648.56;;;-5.16;100.00
79075;BME280;68476;42.710;23.388;2024-01-30T06:00:53;97649.44;;;-5.15;100.00
79075;BME280;68476;42.710;23.388;2024-01-30T06:03:18;97645.25;;;-5.03;100.00
79075;BME280;68476;42.710;23.388;2024-01-30T06:05:44;97649.78;;;-4.88;100.00
79075;BME280;68476;42.710;23.388;2024-01-30T06:08:09;97657.59;;;-4.85;99.41
79075;BME280;68476;42.710;23.388;2024-01-30T06:10:35;97640.97;;;-4.72;98.14
79075;BME280;68476;42.710;23.388;2024-01-30T06:13:01;97645.66;;;-4.44;95.43
79075;BME280;68476;42.710;23.388;2024-01-30T06:15:27;97642.22;;;-4.30;94.20
79075;BME280;68476;42.710;23.388;2024-01-30T06:17:55;97646.28;;;-4.07;91.01
79075;BME280;68476;42.710;23.388;2024-01-30T06:20:20;97639.53;;;-3.98;89.56
79075;BME280;68476;42.710;23.388;2024-01-30T06:22:45;97642.78;;;-3.77;87.09
79075;BME280;68476;42.710;23.388;2024-01-30T06:25:11;97642.25;;;-3.67;86.31
79075;BME280;68476;42.710;23.388;2024-01-30T06:27:37;97643.41;;;-3.41;83.36
79075;BME280;68476;42.710;23.388;2024-01-30T06:30:04;97639.81;;;-3.26;81.95
79075;BME280;68476;42.710;23.388;2024-01-30T06:32:30;97643.63;;;-3.30;83.45
79075;BME280;68476;42.710;23.388;2024-01-30T06:35:00;97639.81;;;-3.26;82.48
79075;BME280;68476;42.710;23.388;2024-01-30T06:37:25;97635.41;;;-3.41;83.01
79075;BME280;68476;42.710;23.388;2024-01-30T06:39:50;97639.53;;;-3.35;83.82
79075;BME280;68476;42.710;23.388;2024-01-30T06:42:18;97644.41;;;-3.13;82.18
79075;BME280;68476;42.710;23.388;2024-01-30T06:44:43;97645.09;;;-2.95;80.85
79075;BME280;68476;42.710;23.388;2024-01-30T06:47:09;97642.13;;;-3.05;85.43
79075;BME280;68476;42.710;23.388;2024-01-30T06:49:34;97638.72;;;-2.92;86.13
79075;BME280;68476;42.710;23.388;2024-01-30T06:52:00;97637.19;;;-2.82;83.96
79075;BME280;68476;42.710;23.388;2024-01-30T06:54:25;97644.84;;;-2.61;81.68
79075;BME280;68476;42.710;23.388;2024-01-30T06:56:51;97642.53;;;-2.53;78.90
79075;BME280;68476;42.710;23.388;2024-01-30T06:59:16;97646.34;;;-2.28;77.75
79075;BME280;68476;42.710;23.388;2024-01-30T07:01:42;97648.03;;;-2.13;76.40
79075;BME280;68476;42.710;23.388;2024-01-30T07:04:07;97653.13;;;-1.95;72.83
79075;BME280;68476;42.710;23.388;2024-01-30T07:06:33;97655.50;;;-1.91;71.76
79075;BME280;68476;42.710;23.388;2024-01-30T07:08:58;97649.72;;;-1.70;71.05
79075;BME280;68476;42.710;23.388;2024-01-30T07:11:24;97643.84;;;-1.62;72.13
79075;BME280;68476;42.710;23.388;2024-01-30T07:13:53;97642.16;;;-1.63;71.41
79075;BME280;68476;42.710;23.388;2024-01-30T07:16:20;97640.44;;;-1.64;69.31
79075;BME280;68476;42.710;23.388;2024-01-30T07:18:50;97633.13;;;-1.35;68.89
79075;BME280;68476;42.710;23.388;2024-01-30T07:21:16;97639.88;;;-1.29;68.77
79075;BME280;68476;42.710;23.388;2024-01-30T07:23:42;97644.00;;;-1.11;69.41
79075;BME280;68476;42.710;23.388;2024-01-30T07:26:08;97642.19;;;-1.50;68.98
79075;BME280;68476;42.710;23.388;2024-01-30T07:28:34;97645.84;;;-1.38;66.92
79075;BME280;68476;42.710;23.388;2024-01-30T07:31:01;97644.75;;;-1.49;66.85
79075;BME280;68476;42.710;23.388;2024-01-30T07:33:27;97642.19;;;-1.50;67.71
79075;BME280;68476;42.710;23.388;2024-01-30T07:35:53;97642.28;;;-1.12;67.16
79075;BME280;68476;42.710;23.388;2024-01-30T07:38:19;97637.25;;;-1.03;67.31
79075;BME280;68476;42.710;23.388;2024-01-30T07:40:44;97643.69;;;-0.93;68.85
79075;BME280;68476;42.710;23.388;2024-01-30T07:43:10;97645.06;;;-0.87;67.09
79075;BME280;68476;42.710;23.388;2024-01-30T07:45:36;97641.25;;;-0.96;66.45
79075;BME280;68476;42.710;23.388;2024-01-30T07:48:03;97634.59;;;-0.90;65.32
79075;BME280;68476;42.710;23.388;2024-01-30T07:50:28;97628.59;;;-0.68;66.12
79075;BME280;68476;42.710;23.388;2024-01-30T07:52:56;97634.38;;;-1.00;64.93
79075;BME280;68476;42.710;23.388;2024-01-30T07:55:22;97643.16;;;-0.85;63.76
79075;BME280;68476;42.710;23.388;2024-01-30T07:57:52;97641.66;;;-0.64;65.39
79075;BME280;68476;42.710;23.388;2024-01-30T08:00:18;97647.84;;;-0.50;62.60
79075;BME280;68476;42.710;23.388;2024-01-30T08:02:45;97640.38;;;-0.45;62.67
79075;BME280;68476;42.710;23.388;2024-01-30T08:05:10;97634.63;;;-0.14;61.32
79075;BME280;68476;42.710;23.388;2024-01-30T08:07:37;97634.84;;;0.20;61.04
79075;BME280;68476;42.710;23.388;2024-01-30T08:10:02;97637.88;;;0.15;61.68
79075;BME280;68476;42.710;23.388;2024-01-30T08:12:29;97635.41;;;-0.25;60.45
79075;BME280;68476;42.710;23.388;2024-01-30T08:14:54;97630.38;;;0.07;60.58
79075;BME280;68476;42.710;23.388;2024-01-30T08:17:20;97630.69;;;0.40;59.08
79075;BME280;68476;42.710;23.388;2024-01-30T08:19:45;97634.16;;;0.53;58.89
79075;BME280;68476;42.710;23.388;2024-01-30T08:22:12;97634.03;;;0.55;59.07
79075;BME280;68476;42.710;23.388;2024-01-30T08:24:38;97630.25;;;0.82;58.06
79075;BME280;68476;42.710;23.388;2024-01-30T08:27:06;97627.47;;;0.59;58.23
79075;BME280;68476;42.710;23.388;2024-01-30T08:29:31;97626.63;;;0.34;58.43
79075;BME280;68476;42.710;23.388;2024-01-30T08:31:57;97641.06;;;0.20;58.37
79075;BME280;68476;42.710;23.388;2024-01-30T08:34:24;97641.22;;;0.06;59.25
79075;BME280;68476;42.710;23.388;2024-01-30T08:36:50;97637.25;;;0.36;58.47
79075;BME280;68476;42.710;23.388;2024-01-30T08:39:15;97640.78;;;0.36;58.27
79075;BME280;68476;42.710;23.388;2024-01-30T08:41:41;97631.41;;;0.66;57.96
79075;BME280;68476;42.710;23.388;2024-01-30T08:44:06;97630.56;;;0.77;57.81
79075;BME280;68476;42.710;23.388;2024-01-30T08:46:32;97635.97;;;0.53;60.01
79075;BME280;68476;42.710;23.388;2024-01-30T08:48:59;97638.75;;;0.75;58.73
79075;BME280;68476;42.710;23.388;2024-01-30T08:51:24;97636.78;;;0.66;58.53
79075;BME280;68476;42.710;23.388;2024-01-30T08:53:50;97638.56;;;0.90;58.45
79075;BME280;68476;42.710;23.388;2024-01-30T08:56:15;97633.34;;;0.64;58.91
79075;BME280;68476;42.710;23.388;2024-01-30T08:58:41;97639.41;;;0.55;59.77
79075;BME280;68476;42.710;23.388;2024-01-30T09:01:07;97640.59;;;0.75;60.10
79075;BME280;68476;42.710;23.388;2024-01-30T09:03:32;97653.41;;;0.47;59.55
79075;BME280;68476;42.710;23.388;2024-01-30T09:05:58;97643.25;;;0.64;60.25
79075;BME280;68476;42.710;23.388;2024-01-30T09:08:23;97649.44;;;0.64;61.54
79075;BME280;68476;42.710;23.388;2024-01-30T09:10:50;97647.06;;;0.48;61.52
79075;BME280;68476;42.710;23.388;2024-01-30T09:13:15;97648.34;;;0.67;61.32
79075;BME280;68476;42.710;23.388;2024-01-30T09:15:41;97648.22;;;0.92;60.77
79075;BME280;68476;42.710;23.388;2024-01-30T09:18:07;97644.00;;;0.77;59.90
79075;BME280;68476;42.710;23.388;2024-01-30T09:20:32;97637.31;;;0.83;60.22
79075;BME280;68476;42.710;23.388;2024-01-30T09:22:58;97639.47;;;1.13;60.43
79075;BME280;68476;42.710;23.388;2024-01-30T09:25:24;97639.59;;;1.12;59.95
79075;BME280;68476;42.710;23.388;2024-01-30T09:27:49;97637.00;;;0.99;59.95
79075;BME280;68476;42.710;23.388;2024-01-30T09:30:15;97634.03;;;1.72;58.66
79075;BME280;68476;42.710;23.388;2024-01-30T09:32:41;97618.78;;;4.97;49.18
79075;BME280;68476;42.710;23.388;2024-01-30T09:35:07;97614.13;;;5.94;45.39
79075;BME280;68476;42.710;23.388;2024-01-30T09:37:33;97622.50;;;5.53;46.20
79075;BME280;68476;42.710;23.388;2024-01-30T09:39:58;97601.06;;;7.78;41.26
79075;BME280;68476;42.710;23.388;2024-01-30T09:42:29;97609.38;;;6.34;43.13
79075;BME280;68476;42.710;23.388;2024-01-30T09:44:58;97598.66;;;6.96;42.37
79075;BME280;68476;42.710;23.388;2024-01-30T09:47:24;97605.84;;;5.95;44.67
79075;BME280;68476;42.710;23.388;2024-01-30T09:49:50;97616.66;;;2.42;53.47
79075;BME280;68476;42.710;23.388;2024-01-30T09:52:16;97604.59;;;6.17;44.86
79075;BME280;68476;42.710;23.388;2024-01-30T09:54:42;97609.44;;;4.11;49.47
79075;BME280;68476;42.710;23.388;2024-01-30T09:57:08;97608.66;;;2.64;52.37
79075;BME280;68476;42.710;23.388;2024-01-30T09:59:34;97614.63;;;1.79;53.63
79075;BME280;68476;42.710;23.388;2024-01-30T10:02:00;97597.50;;;5.31;47.01
79075;BME280;68476;42.710;23.388;2024-01-30T10:04:26;97597.06;;;5.83;44.57
79075;BME280;68476;42.710;23.388;2024-01-30T10:06:51;97605.09;;;4.39;47.19
79075;BME280;68476;42.710;23.388;2024-01-30T10:09:17;97600.28;;;5.59;45.28
79075;BME280;68476;42.710;23.388;2024-01-30T10:11:42;97590.31;;;5.02;46.21
79075;BME280;68476;42.710;23.388;2024-01-30T10:14:08;97586.47;;;5.15;45.23
79075;BME280;68476;42.710;23.388;2024-01-30T10:16:34;97595.16;;;3.48;48.64
79075;BME280;68476;42.710;23.388;2024-01-30T10:19:00;97603.84;;;2.46;51.69
79075;BME280;68476;42.710;23.388;2024-01-30T10:21:25;97595.47;;;2.82;51.31
79075;BME280;68476;42.710;23.388;2024-01-30T10:23:51;97602.41;;;3.89;50.36
79075;BME280;68476;42.710;23.388;2024-01-30T10:26:16;97597.44;;;5.98;44.36
79075;BME280;68476;42.710;23.388;2024-01-30T10:28:45;97598.13;;;3.45;50.12
79075;BME280;68476;42.710;23.388;2024-01-30T10:31:10;97607.97;;;2.50;52.97
79075;BME280;68476;42.710;23.388;2024-01-30T10:33:36;97604.38;;;2.28;52.97
79075;BME280;68476;42.710;23.388;2024-01-30T10:36:04;97604.97;;;1.88;54.17
79075;BME280;68476;42.710;23.388;2024-01-30T10:38:30;97610.31;;;1.54;54.97
79075;BME280;68476;42.710;23.388;2024-01-30T10:41:00;97603.47;;;1.84;54.38
79075;BME280;68476;42.710;23.388;2024-01-30T10:43:32;97588.38;;;2.81;53.38
79075;BME280;68476;42.710;23.388;2024-01-30T10:46:18;97593.41;;;2.09;55.05
79075;BME280;68476;42.710;23.388;2024-01-30T10:48:51;97596.22;;;2.07;55.44
79075;BME280;68476;42.710;23.388;2024-01-30T10:51:20;97593.94;;;1.80;55.74
79075;BME280;68476;42.710;23.388;2024-01-30T10:53:49;97594.47;;;1.62;55.59
79075;BME280;68476;42.710;23.388;2024-01-30T10:56:16;97586.84;;;1.90;55.11
79075;BME280;68476;42.710;23.388;2024-01-30T10:58:42;97580.91;;;2.19;54.29
79075;BME280;68476;42.710;23.388;2024-01-30T11:01:07;97567.91;;;6.69;44.64
79075;BME280;68476;42.710;23.388;2024-01-30T11:03:34;97554.59;;;6.76;42.68
79075;BME280;68476;42.710;23.388;2024-01-30T11:06:02;97560.81;;;5.66;45.87
79075;BME280;68476;42.710;23.388;2024-01-30T11:08:28;97562.13;;;4.07;49.87
79075;BME280;68476;42.710;23.388;2024-01-30T11:10:57;97558.31;;;5.55;45.26
79075;BME280;68476;42.710;23.388;2024-01-30T11:13:30;97552.66;;;4.91;46.99
79075;BME280;68476;42.710;23.388;2024-01-30T11:16:03;97560.81;;;3.19;50.98
79075;BME280;68476;42.710;23.388;2024-01-30T11:18:30;97558.81;;;2.69;52.74
79075;BME280;68476;42.710;23.388;2024-01-30T11:20:56;97561.00;;;2.75;51.06
79075;BME280;68476;42.710;23.388;2024-01-30T11:23:23;97558.41;;;2.20;53.28
79075;BME280;68476;42.710;23.388;2024-01-30T11:25:49;97553.53;;;3.10;50.13
79075;BME280;68476;42.710;23.388;2024-01-30T11:28:15;97530.16;;;7.73;41.85
79075;BME280;68476;42.710;23.388;2024-01-30T11:30:43;97533.91;;;6.75;43.31
79075;BME280;68476;42.710;23.388;2024-01-30T11:33:11;97548.38;;;4.98;46.77
79075;BME280;68476;42.710;23.388;2024-01-30T11:35:42;97547.16;;;3.42;50.37
79075;BME280;68476;42.710;23.388;2024-01-30T11:38:09;97553.28;;;2.50;52.90
79075;BME280;68476;42.710;23.388;2024-01-30T11:40:37;97558.97;;;1.91;54.96
79075;BME280;68476;42.710;23.388;2024-01-30T11:43:05;97552.69;;;2.13;54.79
79075;BME280;68476;42.710;23.388;2024-01-30T11:45:31;97551.28;;;2.30;54.17
79075;BME280;68476;42.710;23.388;2024-01-30T11:47:58;97535.38;;;6.87;44.48
79075;BME280;68476;42.710;23.388;2024-01-30T11:50:32;97530.41;;;8.97;38.10
79075;BME280;68476;42.710;23.388;2024-01-30T11:52:59;97527.00;;;8.70;39.10
79075;BME280;68476;42.710;23.388;2024-01-30T11:55:25;97526.16;;;7.24;41.92
79075;BME280;68476;42.710;23.388;2024-01-30T11:57:51;97516.94;;;9.37;37.90
79075;BME280;68476;42.710;23.388;2024-01-30T12:00:17;97515.06;;;8.30;38.49
79075;BME280;68476;42.710;23.388;2024-01-30T12:02:54;97499.31;;;10.90;36.33
79075;BME280;68476;42.710;23.388;2024-01-30T12:05:25;97502.28;;;10.81;34.37
79075;BME280;68476;42.710;23.388;2024-01-30T12:07:51;97491.19;;;10.59;34.98
79075;BME280;68476;42.710;23.388;2024-01-30T12:10:17;97489.78;;;8.46;37.83
79075;BME280;68476;42.710;23.388;2024-01-30T12:12:47;97481.56;;;9.45;36.54
79075;BME280;68476;42.710;23.388;2024-01-30T12:15:13;97478.66;;;10.50;35.23
79075;BME280;68476;42.710;23.388;2024-01-30T12:17:39;97476.06;;;9.93;34.77
79075;BME280;68476;42.710;23.388;2024-01-30T12:22:38;97464.91;;;11.19;33.50
79075;BME280;68476;42.710;23.388;2024-01-30T12:25:07;97471.88;;;10.69;33.07
79075;BME280;68476;42.710;23.388;2024-01-30T12:27:33;97473.09;;;9.32;35.63
79075;BME280;68476;42.710;23.388;2024-01-30T12:29:59;97480.63;;;7.79;37.90
79075;BME280;68476;42.710;23.388;2024-01-30T12:32:24;97463.50;;;11.08;33.76
79075;BME280;68476;42.710;23.388;2024-01-30T12:34:50;97468.72;;;9.06;36.03
79075;BME280;68476;42.710;23.388;2024-01-30T12:37:16;97470.28;;;9.56;35.02
79075;BME280;68476;42.710;23.388;2024-01-30T12:39:48;97453.72;;;9.18;35.89
79075;BME280;68476;42.710;23.388;2024-01-30T12:42:14;97460.84;;;10.07;34.27
79075;BME280;68476;42.710;23.388;2024-01-30T12:44:41;97453.34;;;12.29;31.48
79075;BME280;68476;42.710;23.388;2024-01-30T12:47:08;97454.53;;;11.00;32.95
79075;BME280;68476;42.710;23.388;2024-01-30T12:49:34;97448.56;;;11.34;32.91